Time;durP1;ratioP1;P1;durP2;ratioP2;P2;SDS_P1;SDS_P2;PMS_P1;PMS_P2;Temp;Humidity;BMP_temperature;BMP_pressure;BME280_temperature;BME280_humidity;BME280_pressure;Samples;Min_cycle;Max_cycle;Signal;HPM_P1;HPM_P2
2022/04/13 00:00:11;;;;;;;12.43;6.90;;;12.10;99.90;;;;;;5071052;28;20040;-55
2022/04/13 00:02:37;;;;;;;15.65;7.05;;;11.40;99.90;;;;;;5070214;28;20067;-54
2022/04/13 00:05:04;;;;;;;11.57;6.22;;;11.50;99.90;;;;;;5069271;28;20508;-54
2022/04/13 00:07:29;;;;;;;15.15;7.32;;;11.60;99.90;;;;;;5069286;28;20542;-56
2022/04/13 00:09:57;;;;;;;12.15;7.22;;;12.10;99.90;;;;;;5070240;28;20046;-56
2022/04/13 00:12:23;;;;;;;10.93;6.80;;;12.50;99.90;;;;;;5069872;28;20121;-56
2022/04/13 00:14:49;;;;;;;10.77;7.03;;;11.30;99.90;;;;;;5070684;28;20135;-55
2022/04/13 00:17:15;;;;;;;11.77;8.00;;;13.20;99.90;;;;;;5070842;28;20044;-54
2022/04/13 00:19:40;;;;;;;13.98;7.53;;;11.40;99.90;;;;;;5069780;28;20071;-54
2022/04/13 00:22:06;;;;;;;10.70;7.20;;;11.40;99.90;;;;;;5051834;28;20482;-55
2022/04/13 00:24:33;;;;;;;12.05;7.47;;;11.50;99.90;;;;;;5046778;28;20092;-55
2022/04/13 00:26:59;;;;;;;13.00;8.20;;;12.70;99.90;;;;;;5069277;28;20590;-54
2022/04/13 00:29:29;;;;;;;10.98;7.22;;;11.80;99.90;;;;;;5052024;28;20089;-56
2022/04/13 00:32:00;;;;;;;16.00;7.90;;;11.40;99.90;;;;;;5069895;28;20086;-54
2022/04/13 00:34:26;;;;;;;11.00;7.72;;;11.40;99.90;;;;;;5070169;28;20036;-55
2022/04/13 00:36:52;;;;;;;14.07;8.63;;;11.50;99.90;;;;;;5073070;28;20270;-56
2022/04/13 00:39:21;;;;;;;11.85;8.23;;;11.50;99.90;;;;;;5074239;28;20054;-55
2022/04/13 00:41:47;;;;;;;11.90;7.95;;;11.50;99.90;;;;;;5074011;28;20123;-56
2022/04/13 00:44:12;;;;;;;13.27;8.52;;;11.50;99.90;;;;;;5073870;28;20039;-55
2022/04/13 00:46:38;;;;;;;14.68;8.00;;;11.40;99.90;;;;;;5072454;28;20423;-55
2022/04/13 00:49:05;;;;;;;9.65;7.03;;;11.20;99.90;;;;;;5074601;28;20055;-55
2022/04/13 00:51:31;;;;;;;13.40;7.45;;;11.30;99.90;;;;;;5073205;28;20051;-56
2022/04/13 00:53:59;;;;;;;12.93;8.02;;;11.80;99.90;;;;;;5055220;28;20040;-56
2022/04/13 00:56:27;;;;;;;13.13;7.70;;;11.10;99.90;;;;;;5073310;28;20111;-56
2022/04/13 00:58:57;;;;;;;19.50;9.10;;;11.30;99.90;;;;;;5074951;28;20044;-56
2022/04/13 01:01:25;;;;;;;15.57;8.32;;;12.40;99.90;;;;;;5073303;28;20115;-54
2022/04/13 01:03:52;;;;;;;15.05;8.45;;;11.00;99.90;;;;;;5075891;28;20071;-57
2022/04/13 01:06:19;;;;;;;13.27;7.80;;;11.00;99.90;;;;;;5075015;28;20131;-56
2022/04/13 01:08:49;;;;;;;13.75;8.65;;;11.00;99.90;;;;;;5074104;28;20082;-55
2022/04/13 01:11:15;;;;;;;12.60;8.40;;;10.90;99.90;;;;;;5074401;28;20047;-56
2022/04/13 01:13:41;;;;;;;14.60;7.80;;;11.00;99.90;;;;;;5074389;28;20112;-54
2022/04/13 01:16:07;;;;;;;14.98;8.55;;;11.00;99.90;;;;;;5075203;28;20060;-54
2022/04/13 01:18:33;;;;;;;12.32;8.40;;;12.00;99.90;;;;;;5054692;28;20504;-55
2022/04/13 01:21:00;;;;;;;12.80;8.60;;;11.00;99.90;;;;;;5075664;28;20040;-55
2022/04/13 01:23:27;;;;;;;14.27;9.25;;;10.60;99.90;;;;;;5075697;28;20071;-54
2022/04/13 01:25:55;;;;;;;12.23;9.45;;;10.80;99.90;;;;;;5074166;28;20173;-54
2022/04/13 01:28:21;;;;;;;11.48;8.35;;;12.40;99.90;;;;;;5075231;28;20450;-56
2022/04/13 01:30:47;;;;;;;11.18;8.80;;;10.90;99.90;;;;;;5073992;28;20044;-54
2022/04/13 01:33:14;;;;;;;13.90;9.70;;;11.20;99.90;;;;;;5073395;28;20713;-55
2022/04/13 01:35:40;;;;;;;14.35;8.80;;;10.80;99.90;;;;;;5072826;28;20044;-56
2022/04/13 01:38:07;;;;;;;14.02;9.02;;;11.70;99.90;;;;;;5073692;28;20043;-55
2022/04/13 01:40:34;;;;;;;17.65;10.60;;;10.90;99.90;;;;;;5072205;28;20530;-55
2022/04/13 01:43:00;;;;;;;16.20;9.70;;;9.90;99.90;;;;;;5073287;28;20067;-55
2022/04/13 01:45:25;;;;;;;14.80;9.75;;;11.60;99.90;;;;;;5071198;28;20246;-55
2022/04/13 01:47:51;;;;;;;14.45;10.40;;;10.90;99.90;;;;;;5071956;28;20260;-54
2022/04/13 01:50:19;;;;;;;15.48;10.35;;;10.80;99.90;;;;;;5072178;28;20028;-56
2022/04/13 01:52:47;;;;;;;20.67;10.10;;;10.90;99.90;;;;;;5073305;28;20046;-53
2022/04/13 01:55:13;;;;;;;16.77;10.52;;;10.70;99.90;;;;;;5073238;28;20046;-52
2022/04/13 01:57:40;;;;;;;14.98;10.15;;;10.80;99.90;;;;;;5073112;28;20040;-54
2022/04/13 02:00:08;;;;;;;16.98;11.30;;;10.90;99.90;;;;;;5074089;28;20123;-54
2022/04/13 02:02:34;;;;;;;14.07;10.90;;;10.70;99.90;;;;;;5071870;28;20162;-55
2022/04/13 02:05:00;;;;;;;17.67;11.00;;;10.90;99.90;;;;;;5070876;28;20063;-54
2022/04/13 02:07:27;;;;;;;17.58;11.35;;;10.90;99.90;;;;;;5073409;28;20135;-55
2022/04/13 02:09:56;;;;;;;23.00;11.55;;;10.90;99.90;;;;;;5071980;28;20051;-55
2022/04/13 02:12:24;;;;;;;17.88;11.38;;;10.70;99.90;;;;;;5071746;28;20050;-54
2022/04/13 02:14:52;;;;;;;17.42;12.35;;;10.90;99.90;;;;;;5071135;28;20040;-56
2022/04/13 02:17:19;;;;;;;16.55;11.18;;;10.70;99.90;;;;;;5071892;28;20825;-53
2022/04/13 02:19:45;;;;;;;21.38;11.70;;;10.90;99.90;;;;;;5073352;28;20111;-55
2022/04/13 02:22:11;;;;;;;18.33;10.75;;;10.90;99.90;;;;;;5074542;28;20048;-54
2022/04/13 02:24:39;;;;;;;17.38;12.07;;;11.00;99.90;;;;;;5072325;28;20052;-55
2022/04/13 02:27:07;;;;;;;16.77;11.07;;;10.60;99.90;;;;;;5072501;28;20500;-54
2022/04/13 02:29:36;;;;;;;15.60;10.45;;;10.90;99.90;;;;;;5073857;28;20044;-55
2022/04/13 02:32:03;;;;;;;20.65;12.73;;;11.00;99.90;;;;;;5073812;28;20120;-54
2022/04/13 02:34:28;;;;;;;17.65;12.07;;;11.10;99.90;;;;;;5073417;28;20603;-56
2022/04/13 02:36:54;;;;;;;20.90;14.82;;;11.00;99.90;;;;;;5072972;28;20138;-55
2022/04/13 02:39:20;;;;;;;18.83;12.45;;;10.90;99.90;;;;;;5072923;28;20788;-53
2022/04/13 02:41:45;;;;;;;19.98;14.35;;;13.10;99.90;;;;;;5072166;28;20032;-53
2022/04/13 02:44:14;;;;;;;15.93;12.02;;;12.80;99.90;;;;;;5071945;28;20063;-53
2022/04/13 02:46:43;;;;;;;21.58;14.07;;;11.10;99.90;;;;;;5069589;28;20405;-55
2022/04/13 02:49:09;;;;;;;22.83;14.27;;;11.70;99.90;;;;;;5071101;28;20052;-55
2022/04/13 02:51:35;;;;;;;22.52;14.57;;;11.00;99.90;;;;;;5071686;28;20690;-52
2022/04/13 02:54:01;;;;;;;24.02;14.95;;;12.10;99.90;;;;;;5071231;28;20036;-54
2022/04/13 02:56:26;;;;;;;19.60;13.77;;;11.10;99.90;;;;;;5070776;28;20713;-56
2022/04/13 02:58:52;;;;;;;16.55;12.93;;;10.90;99.90;;;;;;5071863;28;20035;-54
2022/04/13 03:01:19;;;;;;;23.92;15.52;;;11.80;99.90;;;;;;5071263;28;20821;-55
2022/04/13 03:03:45;;;;;;;22.02;14.48;;;12.30;99.90;;;;;;5070574;28;20508;-56
2022/04/13 03:06:11;;;;;;;20.98;13.35;;;10.90;99.90;;;;;;5071480;28;20043;-55
2022/04/13 03:08:36;;;;;;;17.38;13.82;;;11.90;99.90;;;;;;5071187;28;20496;-56
2022/04/13 03:11:02;;;;;;;20.60;13.30;;;11.00;99.90;;;;;;5071015;28;20046;-54
2022/04/13 03:13:28;;;;;;;24.27;14.40;;;10.60;99.90;;;;;;5071118;28;20452;-56
2022/04/13 03:15:54;;;;;;;20.55;13.52;;;10.70;99.90;;;;;;5070619;28;20172;-55
2022/04/13 03:18:19;;;;;;;20.45;14.32;;;10.40;99.90;;;;;;5051973;28;20064;-55
2022/04/13 03:20:45;;;;;;;19.50;13.15;;;10.60;99.90;;;;;;5071029;28;20113;-55
2022/04/13 03:23:14;;;;;;;21.27;13.85;;;11.60;99.90;;;;;;5071599;28;20043;-54
2022/04/13 03:25:40;;;;;;;19.55;12.77;;;10.30;99.90;;;;;;5070075;28;20040;-55
2022/04/13 03:28:05;;;;;;;21.33;13.02;;;11.00;99.90;;;;;;5071862;28;20044;-51
2022/04/13 03:30:33;;;;;;;17.83;12.60;;;10.40;99.90;;;;;;5071000;28;20035;-56
2022/04/13 03:32:59;;;;;;;20.00;14.48;;;11.00;99.90;;;;;;5047149;28;20036;-54
2022/04/13 03:35:25;;;;;;;23.17;14.50;;;11.60;99.90;;;;;;5071196;28;20587;-53
2022/04/13 03:37:50;;;;;;;24.67;15.57;;;10.10;99.90;;;;;;5070379;28;20067;-56
2022/04/13 03:40:16;;;;;;;24.13;14.77;;;10.10;99.90;;;;;;5071284;28;20161;-53
2022/04/13 03:42:42;;;;;;;19.55;14.65;;;10.10;99.90;;;;;;5070760;28;20101;-57
2022/04/13 03:45:13;;;;;;;26.05;16.15;;;10.40;99.90;;;;;;5071929;28;20057;-56
2022/04/13 03:47:40;;;;;;;22.27;15.33;;;10.20;99.90;;;;;;5071049;28;20085;-55
2022/04/13 03:50:08;;;;;;;19.35;14.80;;;11.40;99.90;;;;;;5071957;28;21688;-51
2022/04/13 03:52:35;;;;;;;23.35;15.00;;;10.00;99.90;;;;;;5071243;28;20028;-54
2022/04/13 03:55:04;;;;;;;25.20;17.17;;;10.20;99.90;;;;;;5071798;28;20036;-54
2022/04/13 03:57:30;;;;;;;23.90;16.25;;;9.70;99.90;;;;;;5072003;28;20768;-56
2022/04/13 03:59:56;;;;;;;20.75;15.05;;;10.00;99.90;;;;;;5072325;28;20048;-52
2022/04/13 04:02:21;;;;;;;21.05;15.05;;;9.90;99.90;;;;;;5054140;28;20048;-55
2022/04/13 04:04:49;;;;;;;20.05;13.35;;;10.00;99.90;;;;;;5071455;28;20059;-54
2022/04/13 04:07:16;;;;;;;26.67;15.77;;;10.00;99.90;;;;;;5070295;28;20028;-55
2022/04/13 04:09:43;;;;;;;23.73;14.85;;;10.00;99.90;;;;;;5069649;28;20043;-56
2022/04/13 04:12:09;;;;;;;23.38;15.60;;;9.80;99.90;;;;;;5074671;28;20043;-56
2022/04/13 04:14:35;;;;;;;29.00;16.45;;;10.00;99.90;;;;;;5051633;28;20083;-54
2022/04/13 04:17:00;;;;;;;20.73;15.18;;;10.10;99.90;;;;;;5074363;28;20539;-56
2022/04/13 04:19:28;;;;;;;25.88;16.23;;;10.00;99.90;;;;;;5075358;28;20698;-54
2022/04/13 04:21:55;;;;;;;26.40;16.25;;;10.40;99.90;;;;;;5074081;28;20596;-55
2022/04/13 04:24:21;;;;;;;20.42;13.98;;;9.90;99.90;;;;;;5056523;28;20047;-55
2022/04/13 04:26:47;;;;;;;21.00;16.33;;;10.80;99.90;;;;;;5073920;28;20040;-56
2022/04/13 04:29:14;;;;;;;22.15;15.68;;;10.90;99.90;;;;;;5074607;28;20052;-55
2022/04/13 04:31:59;;;;;;;22.35;15.00;;;10.20;99.90;;;;;;5075396;28;20044;-55
2022/04/13 04:34:27;;;;;;;22.13;13.57;;;10.00;99.90;;;;;;5073431;28;20054;-55
2022/04/13 04:36:53;;;;;;;18.45;13.05;;;12.20;99.90;;;;;;5073043;28;20121;-55
2022/04/13 04:39:20;;;;;;;22.83;14.77;;;9.90;99.90;;;;;;5074712;28;20084;-53
2022/04/13 04:41:47;;;;;;;24.15;15.68;;;10.00;99.90;;;;;;5073727;28;20039;-55
2022/04/13 04:44:12;;;;;;;23.70;14.48;;;9.90;99.90;;;;;;5073249;28;20112;-54
2022/04/13 04:46:38;;;;;;;19.73;14.00;;;9.70;99.90;;;;;;5054964;28;20040;-56
2022/04/13 04:49:04;;;;;;;25.10;16.27;;;11.90;99.90;;;;;;5074459;28;20449;-56
2022/04/13 04:51:31;;;;;;;28.35;15.65;;;10.60;99.90;;;;;;5073931;28;20048;-54
2022/04/13 04:53:58;;;;;;;23.50;15.20;;;11.50;99.90;;;;;;5073148;28;20547;-54
2022/04/13 04:56:24;;;;;;;24.63;15.75;;;11.10;99.90;;;;;;5073297;28;20123;-53
2022/04/13 04:58:49;;;;;;;23.27;15.43;;;9.90;99.90;;;;;;5074245;28;20062;-55
2022/04/13 05:01:17;;;;;;;26.17;15.93;;;10.00;99.90;;;;;;5074141;28;20808;-54
2022/04/13 05:03:48;;;;;;;22.88;15.63;;;10.10;99.90;;;;;;5073758;28;20138;-55
2022/04/13 05:06:18;;;;;;;25.13;16.45;;;11.20;99.90;;;;;;5073323;28;20035;-56
2022/04/13 05:08:44;;;;;;;24.10;16.13;;;10.80;99.90;;;;;;5073633;28;20036;-53
2022/04/13 05:11:12;;;;;;;26.00;17.33;;;11.00;99.90;;;;;;5074305;28;20104;-56
2022/04/13 05:13:38;;;;;;;21.50;15.85;;;10.10;99.90;;;;;;5074527;28;20032;-54
2022/04/13 05:16:05;;;;;;;24.35;16.27;;;10.20;99.90;;;;;;5072050;28;20060;-56
2022/04/13 05:18:31;;;;;;;24.75;17.02;;;10.40;99.90;;;;;;5072881;28;20255;-45
2022/04/13 05:20:56;;;;;;;29.10;17.73;;;10.30;99.90;;;;;;5055431;28;20602;-47
2022/04/13 05:23:22;;;;;;;30.48;17.23;;;11.30;99.90;;;;;;5072591;28;20073;-43
2022/04/13 05:25:48;;;;;;;23.77;17.10;;;10.50;99.90;;;;;;5072182;28;20088;-46
2022/04/13 05:28:15;;;;;;;33.25;19.23;;;10.50;99.90;;;;;;5073502;28;20086;-46
2022/04/13 05:30:40;;;;;;;27.08;18.08;;;10.30;99.90;;;;;;5073094;28;20055;-47
2022/04/13 05:33:06;;;;;;;29.27;19.10;;;10.50;99.90;;;;;;5073013;28;20392;-42
2022/04/13 05:35:34;;;;;;;31.23;20.73;;;10.50;99.90;;;;;;5071982;28;20036;-43
2022/04/13 05:38:02;;;;;;;32.50;20.40;;;10.50;99.90;;;;;;5072733;28;20496;-44
2022/04/13 05:40:28;;;;;;;25.25;18.17;;;10.50;99.90;;;;;;5072494;28;20083;-46
2022/04/13 05:42:54;;;;;;;27.17;18.33;;;10.50;99.90;;;;;;5071428;28;20126;-43
2022/04/13 05:45:20;;;;;;;27.30;18.40;;;10.60;99.90;;;;;;5072829;28;20211;-43
2022/04/13 05:47:45;;;;;;;32.95;19.50;;;10.80;99.90;;;;;;5071812;28;20557;-43
2022/04/13 05:50:13;;;;;;;33.75;19.70;;;10.80;99.90;;;;;;5054173;28;20481;-46
2022/04/13 05:52:39;;;;;;;29.35;19.52;;;11.00;99.90;;;;;;5071497;28;20043;-45
2022/04/13 05:55:07;;;;;;;30.95;19.77;;;12.50;99.90;;;;;;5073028;28;20241;-43
2022/04/13 05:57:34;;;;;;;33.10;19.25;;;11.40;99.90;;;;;;5071832;28;20133;-46
2022/04/13 06:00:00;;;;;;;28.10;19.08;;;12.70;99.90;;;;;;5071679;28;20071;-45
2022/04/13 06:02:26;;;;;;;30.77;18.70;;;12.40;99.90;;;;;;5067181;28;21301;-45
2022/04/13 06:04:52;;;;;;;30.35;18.60;;;11.70;99.90;;;;;;5069086;28;20036;-45
2022/04/13 06:07:18;;;;;;;28.33;18.92;;;13.90;99.90;;;;;;5072205;28;20557;-46
2022/04/13 06:09:44;;;;;;;24.00;18.50;;;12.50;99.90;;;;;;5066134;28;20044;-46
2022/04/13 06:12:11;;;;;;;29.65;17.50;;;12.20;99.90;;;;;;5073371;28;20496;-46
2022/04/13 06:14:37;;;;;;;28.67;18.45;;;12.40;99.90;;;;;;5073608;28;20143;-43
2022/04/13 06:17:03;;;;;;;26.13;17.65;;;14.20;99.90;;;;;;5071148;28;20492;-43
2022/04/13 06:19:29;;;;;;;27.88;17.70;;;13.20;99.90;;;;;;5071705;28;20036;-46
2022/04/13 06:21:55;;;;;;;30.70;16.95;;;14.00;99.90;;;;;;5069359;28;20373;-44
2022/04/13 06:24:20;;;;;;;29.00;16.50;;;13.90;99.90;;;;;;5053692;28;20090;-46
2022/04/13 06:26:46;;;;;;;28.35;16.58;;;15.90;99.90;;;;;;5071580;28;20430;-44
2022/04/13 06:29:12;;;;;;;24.42;15.88;;;14.90;99.90;;;;;;5073257;28;20044;-43
2022/04/13 06:31:37;;;;;;;23.90;15.15;;;14.20;99.90;;;;;;5072434;28;20086;-47
2022/04/13 06:34:03;;;;;;;23.30;16.17;;;14.70;99.90;;;;;;5071064;28;20048;-45
2022/04/13 06:36:29;;;;;;;26.08;16.00;;;14.80;99.90;;;;;;5071937;28;20078;-45
2022/04/13 06:38:55;;;;;;;22.00;15.88;;;14.50;99.90;;;;;;5070495;28;20051;-47
2022/04/13 06:41:21;;;;;;;21.40;15.32;;;14.30;99.90;;;;;;5069907;28;20040;-44
2022/04/13 06:43:48;;;;;;;23.27;15.20;;;14.10;99.90;;;;;;5071288;28;20097;-44
2022/04/13 06:46:14;;;;;;;27.17;16.20;;;15.00;99.90;;;;;;5068668;28;20044;-46
2022/04/13 06:48:39;;;;;;;23.60;16.17;;;13.70;99.90;;;;;;5069338;28;20058;-47
2022/04/13 06:51:05;;;;;;;25.05;15.98;;;13.70;99.90;;;;;;5070124;28;20044;-48
2022/04/13 06:53:31;;;;;;;28.40;15.88;;;13.60;99.90;;;;;;5069682;28;20044;-43
2022/04/13 06:55:57;;;;;;;26.90;16.33;;;13.60;99.90;;;;;;5070797;28;20271;-44
2022/04/13 06:58:23;;;;;;;24.25;16.30;;;14.60;99.90;;;;;;5069894;28;20050;-42
2022/04/13 07:00:49;;;;;;;22.35;15.77;;;14.40;99.90;;;;;;5071602;28;20067;-44
2022/04/13 07:03:14;;;;;;;27.77;16.00;;;13.40;99.90;;;;;;5069376;28;20097;-44
2022/04/13 07:05:40;;;;;;;21.23;15.82;;;13.70;99.90;;;;;;5051275;28;20275;-46
2022/04/13 07:08:06;;;;;;;24.88;15.63;;;15.70;99.90;;;;;;5070212;28;20622;-46
2022/04/13 07:10:33;;;;;;;24.77;15.10;;;14.00;99.90;;;;;;5069653;28;20470;-45
2022/04/13 07:13:00;;;;;;;23.27;14.13;;;14.60;99.90;;;;;;5070710;28;20040;-43
2022/04/13 07:15:26;;;;;;;25.90;14.45;;;15.50;99.90;;;;;;5070928;28;20079;-47
2022/04/13 07:17:53;;;;;;;22.17;14.55;;;16.70;99.90;;;;;;5069300;28;20051;-45
2022/04/13 07:20:19;;;;;;;18.55;12.20;;;17.80;99.90;;;;;;5068651;28;20051;-48
2022/04/13 07:22:53;;;;;;;21.08;12.48;;;18.30;99.90;;;;;;5068777;28;20997;-44
2022/04/13 07:25:19;;;;;;;19.85;11.43;;;18.00;99.90;;;;;;5069981;28;22125;-41
2022/04/13 07:27:46;;;;;;;16.45;11.55;;;17.80;99.90;;;;;;5071785;28;20115;-43
2022/04/13 07:30:14;;;;;;;17.83;11.73;;;17.10;99.90;;;;;;5054112;28;20035;-47
2022/04/13 07:32:43;;;;;;;17.80;11.25;;;16.70;99.90;;;;;;5071940;28;20075;-44
2022/04/13 07:35:09;;;;;;;19.02;11.30;;;16.20;99.90;;;;;;5070675;28;20381;-45
2022/04/13 07:37:43;;;;;;;18.48;11.60;;;17.70;99.90;;;;;;5070810;28;20039;-47
2022/04/13 07:40:14;;;;;;;17.40;11.32;;;15.60;99.90;;;;;;5071531;28;20047;-47
2022/04/13 07:42:40;;;;;;;26.40;12.40;;;15.60;99.90;;;;;;5070043;28;20522;-48
2022/04/13 07:45:07;;;;;;;17.48;10.88;;;15.20;99.90;;;;;;5071438;28;20048;-45
2022/04/13 07:47:33;;;;;;;17.45;11.40;;;15.10;99.90;;;;;;5070785;28;20454;-43
2022/04/13 07:49:59;;;;;;;19.25;11.57;;;15.70;99.90;;;;;;5051282;28;20075;-44
2022/04/13 07:52:25;;;;;;;17.60;10.90;;;15.00;99.90;;;;;;5052048;28;20211;-46
2022/04/13 07:54:50;;;;;;;15.73;10.93;;;15.10;99.90;;;;;;5070420;28;20530;-45
2022/04/13 07:57:18;;;;;;;20.55;11.35;;;15.40;99.90;;;;;;5070252;28;20119;-42
2022/04/13 07:59:44;;;;;;;19.65;11.07;;;15.60;99.90;;;;;;5070292;28;20028;-44
2022/04/13 08:02:10;;;;;;;17.13;10.75;;;17.40;99.90;;;;;;5071439;28;20054;-45
2022/04/13 08:04:36;;;;;;;16.55;9.90;;;15.60;99.90;;;;;;5069724;28;20503;-44
2022/04/13 08:07:02;;;;;;;16.65;10.60;;;16.60;99.90;;;;;;5068988;28;20036;-47
2022/04/13 08:09:28;;;;;;;16.95;10.48;;;15.50;99.90;;;;;;5069650;28;20047;-42
2022/04/13 08:11:54;;;;;;;18.63;10.25;;;15.50;99.90;;;;;;5070496;28;20036;-47
2022/04/13 08:14:21;;;;;;;16.58;10.80;;;15.90;99.90;;;;;;5069616;28;20039;-43
2022/04/13 08:16:46;;;;;;;22.10;10.80;;;16.70;99.90;;;;;;5070347;28;20055;-47
2022/04/13 08:19:13;;;;;;;23.52;11.80;;;18.60;99.90;;;;;;5069732;28;20040;-44
2022/04/13 08:21:39;;;;;;;18.45;10.43;;;18.90;99.90;;;;;;5069343;28;20073;-44
2022/04/13 08:24:05;;;;;;;20.42;10.15;;;18.20;99.90;;;;;;5068987;28;20663;-46
2022/04/13 08:26:33;;;;;;;17.58;9.73;;;17.70;99.90;;;;;;5069751;28;20051;-45
2022/04/13 08:28:59;;;;;;;16.42;9.38;;;18.30;99.90;;;;;;5052613;28;20040;-46
2022/04/13 08:31:25;;;;;;;15.40;8.85;;;19.30;99.90;;;;;;5070540;28;20086;-46
2022/04/13 08:33:50;;;;;;;15.20;8.20;;;18.60;99.90;;;;;;5050435;28;20032;-48
2022/04/13 08:36:17;;;;;;;15.40;8.63;;;19.00;99.90;;;;;;5069588;28;20044;-47
2022/04/13 08:38:43;;;;;;;14.95;8.15;;;18.20;99.90;;;;;;5069673;28;20040;-46
2022/04/13 08:41:15;;;;;;;15.05;7.50;;;18.10;99.90;;;;;;5070969;28;20042;-47
2022/04/13 08:43:56;;;;;;;16.83;8.20;;;19.00;99.90;;;;;;5070431;28;20048;-45
2022/04/13 08:46:27;;;;;;;15.98;8.07;;;18.30;99.90;;;;;;5071500;28;20044;-44
2022/04/13 08:48:56;;;;;;;13.43;7.28;;;18.00;99.90;;;;;;5069381;28;20774;-45
2022/04/13 08:51:23;;;;;;;12.35;7.00;;;17.90;99.90;;;;;;5052325;28;20033;-44
2022/04/13 08:54:02;;;;;;;15.35;7.50;;;18.00;99.90;;;;;;5070447;28;20532;-45
2022/04/13 08:56:34;;;;;;;13.35;7.35;;;17.90;99.90;;;;;;5072044;28;20121;-44
2022/04/13 08:59:03;;;;;;;;;;;17.90;99.90;;;;;;5074425;28;20054;-44
2022/04/13 09:02:07;;;;;;;13.65;7.07;;;17.20;99.90;;;;;;5074607;28;20185;-43
2022/04/13 09:04:37;;;;;;;15.40;7.28;;;17.20;99.90;;;;;;5070913;28;20040;-44
2022/04/13 09:07:04;;;;;;;14.52;7.03;;;17.20;99.90;;;;;;5071845;28;20476;-47
2022/04/13 09:09:49;;;;;;;11.85;6.75;;;17.60;99.90;;;;;;5072930;28;20048;-46
2022/04/13 09:12:18;;;;;;;15.98;7.28;;;18.00;99.90;;;;;;5072510;28;20051;-46
2022/04/13 09:14:45;;;;;;;12.48;6.57;;;18.30;99.90;;;;;;5069350;28;20569;-47
2022/04/13 09:17:11;;;;;;;11.50;6.75;;;18.80;99.90;;;;;;5073109;28;20059;-44
2022/04/13 09:19:38;;;;;;;14.32;6.15;;;19.00;99.90;;;;;;5073119;28;20043;-45
2022/04/13 09:22:05;;;;;;;11.70;5.85;;;19.20;99.90;;;;;;5072822;28;20050;-42
2022/04/13 09:24:32;;;;;;;12.68;6.30;;;19.30;99.90;;;;;;5072170;28;20058;-44
2022/04/13 09:26:59;;;;;;;12.05;5.40;;;19.80;99.90;;;;;;5072944;28;20035;-46
2022/04/13 09:29:25;;;;;;;15.10;6.85;;;19.90;99.90;;;;;;5073487;28;20066;-46
2022/04/13 09:31:51;;;;;;;12.40;6.05;;;20.60;99.90;;;;;;5074099;28;20494;-44
2022/04/13 09:34:17;;;;;;;8.60;4.40;;;21.80;99.90;;;;;;5071980;28;20070;-43
2022/04/13 09:36:44;;;;;;;11.93;6.03;;;21.40;99.90;;;;;;5073090;28;20032;-44
2022/04/13 09:39:13;;;;;;;11.23;5.93;;;21.10;99.90;;;;;;5073869;28;20043;-43
2022/04/13 09:41:39;;;;;;;13.77;6.13;;;20.80;99.90;;;;;;5072313;28;20162;-43
2022/04/13 09:44:15;;;;;;;13.05;6.32;;;20.20;99.90;;;;;;5072570;28;20442;-45
2022/04/13 09:46:42;;;;;;;14.93;6.25;;;20.80;99.90;;;;;;5067867;28;20036;-45
2022/04/13 09:49:18;;;;;;;13.82;6.07;;;19.70;99.90;;;;;;5072117;28;20113;-43
2022/04/13 09:51:49;;;;;;;12.02;5.95;;;19.50;99.90;;;;;;5072578;28;20060;-47
2022/04/13 09:54:16;;;;;;;10.98;5.30;;;21.70;99.90;;;;;;5072005;28;20032;-46
2022/04/13 09:56:47;;;;;;;10.60;5.88;;;19.10;99.90;;;;;;5052976;28;20653;-43
2022/04/13 09:59:24;;;;;;;9.23;5.13;;;20.60;99.90;;;;;;5067685;28;20040;-45
2022/04/13 10:01:50;;;;;;;12.27;4.80;;;19.60;99.90;;;;;;5074475;28;20028;-48
2022/04/13 10:04:30;;;;;;;13.25;6.30;;;19.30;99.90;;;;;;5072216;28;20442;-43
2022/04/13 10:07:13;;;;;;;10.57;5.28;;;19.30;99.90;;;;;;5073470;28;20126;-47
2022/04/13 10:09:39;;;;;;;9.52;3.83;;;19.50;99.90;;;;;;5068870;28;20409;-47
2022/04/13 10:12:05;;;;;;;11.52;5.63;;;20.60;99.90;;;;;;5071949;28;20051;-47
2022/04/13 10:14:31;;;;;;;13.32;5.00;;;19.70;99.90;;;;;;5070030;28;20039;-46
2022/04/13 10:17:07;;;;;;;12.43;5.25;;;20.90;99.90;;;;;;5054237;28;20051;-47
2022/04/13 10:19:35;;;;;;;9.70;4.68;;;19.60;99.90;;;;;;5069667;28;20040;-47
2022/04/13 10:22:00;;;;;;;9.40;4.28;;;21.20;99.90;;;;;;5072216;28;20379;-45
2022/04/13 10:24:28;;;;;;;14.70;6.47;;;19.80;99.90;;;;;;5071321;28;20599;-48
2022/04/13 10:27:08;;;;;;;11.80;4.50;;;19.70;99.90;;;;;;5071403;28;20048;-47
2022/04/13 10:29:39;;;;;;;9.98;4.65;;;20.00;99.90;;;;;;5054410;28;20115;-48
2022/04/13 10:32:13;;;;;;;10.25;5.07;;;20.00;99.90;;;;;;5072304;28;20047;-45
2022/04/13 10:34:50;;;;;;;10.55;4.55;;;20.10;99.90;;;;;;5068593;28;20071;-46
2022/04/13 10:37:19;;;;;;;9.88;4.28;;;20.20;99.90;;;;;;5069409;28;20075;-47
2022/04/13 10:39:46;;;;;;;12.13;5.32;;;21.60;99.90;;;;;;5071885;28;20051;-42
2022/04/13 10:42:14;;;;;;;11.93;5.10;;;19.40;99.90;;;;;;5070467;28;20134;-45
2022/04/13 10:44:53;;;;;;;11.30;5.28;;;19.40;99.90;;;;;;5071263;28;20036;-43
2022/04/13 10:47:33;;;;;;;12.23;5.32;;;19.20;99.90;;;;;;5071140;28;20050;-47
2022/04/13 10:50:01;;;;;;;12.45;4.50;;;19.30;99.90;;;;;;5066677;28;20704;-45
2022/04/13 10:52:37;;;;;;;9.77;5.15;;;19.40;99.90;;;;;;5068481;28;20032;-47
2022/04/13 10:55:11;;;;;;;9.15;4.93;;;20.30;99.90;;;;;;5069431;28;20058;-43
2022/04/13 10:57:52;;;;;;;10.43;5.10;;;19.40;99.90;;;;;;5070113;28;20564;-44
2022/04/13 11:00:20;;;;;;;14.13;5.33;;;19.20;99.90;;;;;;5070479;28;20075;-45
2022/04/13 11:02:54;;;;;;;9.18;4.80;;;19.20;99.90;;;;;;5070361;28;20040;-43
2022/04/13 11:05:22;;;;;;;14.18;5.32;;;19.20;99.90;;;;;;5052099;28;20959;-47
2022/04/13 11:08:10;;;;;;;12.82;5.78;;;18.90;99.90;;;;;;5070108;28;20614;-43
2022/04/13 11:10:37;;;;;;;11.35;4.82;;;19.00;99.90;;;;;;5007051;28;20068;-44
2022/04/13 11:13:03;;;;;;;14.50;5.50;;;19.70;99.90;;;;;;5008045;28;20058;-44
2022/04/13 11:15:55;;;;;;;13.23;4.53;;;18.50;99.90;;;;;;5009360;28;20045;-43
2022/04/13 11:18:21;;;;;;;;;;;19.20;99.90;;;;;;5007551;28;20124;-44
2022/04/13 11:20:58;;;;;;;10.90;4.97;;;18.00;99.90;;;;;;5008509;28;20026;-44
2022/04/13 11:23:48;;;;;;;13.52;5.03;;;18.30;99.90;;;;;;5009852;28;20037;-43
2022/04/13 11:26:14;;;;;;;7.38;2.97;;;18.20;99.90;;;;;;5009268;28;20037;-41
2022/04/13 11:28:40;;;;;;;10.63;3.60;;;18.30;99.90;;;;;;5009710;28;20423;-44
2022/04/13 11:31:12;;;;;;;13.85;4.15;;;18.50;99.90;;;;;;4993151;28;20356;-44
2022/04/13 11:33:57;;;;;;;11.25;4.82;;;20.60;99.90;;;;;;5009018;28;20571;-41
2022/04/13 11:36:27;;;;;;;10.43;4.55;;;18.40;99.90;;;;;;5010049;28;20056;-47
2022/04/13 11:38:54;;;;;;;14.88;4.97;;;17.90;99.90;;;;;;5008947;28;20265;-46
2022/04/13 11:41:20;;;;;;;14.27;5.65;;;18.10;99.90;;;;;;4990447;28;20531;-46
2022/04/13 11:43:47;;;;;;;10.00;4.55;;;19.10;99.90;;;;;;5007805;28;20557;-46
2022/04/13 11:46:41;;;;;;;13.13;4.70;;;19.00;99.90;;;;;;5008449;28;20107;-47
2022/04/13 11:49:10;;;;;;;11.63;4.82;;;17.80;99.90;;;;;;5070552;28;20174;-46
2022/04/13 11:51:36;;;;;;;14.95;5.78;;;19.40;99.90;;;;;;5071012;28;20044;-45
2022/04/13 11:54:08;;;;;;;12.52;4.82;;;17.50;99.90;;;;;;5051864;28;20048;-45
2022/04/13 11:56:35;;;;;;;;;;;17.40;99.90;;;;;;5069664;28;20132;-44
2022/04/13 11:59:01;;;;;;;11.55;4.97;;;17.20;99.90;;;;;;5069380;28;20061;-47
2022/04/13 12:01:27;;;;;;;14.75;6.50;;;19.40;99.90;;;;;;5070396;28;20036;-43
2022/04/13 12:03:56;;;;;;;13.07;5.45;;;17.60;99.90;;;;;;5071295;28;20069;-44
2022/04/13 12:06:24;;;;;;;17.23;5.60;;;17.20;99.90;;;;;;5070422;28;20040;-46
2022/04/13 12:08:58;;;;;;;15.30;5.88;;;17.00;99.90;;;;;;5069626;28;20051;-46
2022/04/13 12:11:38;;;;;;;14.05;5.65;;;17.00;99.90;;;;;;5069128;28;20093;-46
2022/04/13 12:14:04;;;;;;;11.25;4.35;;;17.00;99.90;;;;;;5069310;28;20174;-42
2022/04/13 12:16:34;;;;;;;14.13;5.68;;;17.00;99.90;;;;;;5066203;28;20044;-46
2022/04/13 12:19:02;;;;;;;11.60;5.28;;;16.70;99.90;;;;;;5069539;28;20133;-47
2022/04/13 12:21:36;;;;;;;16.30;5.38;;;19.00;99.90;;;;;;5069535;28;20124;-44
2022/04/13 12:24:11;;;;;;;19.83;5.30;;;17.80;99.90;;;;;;5068941;28;20044;-44
2022/04/13 12:26:45;;;;;;;15.85;5.78;;;16.80;99.90;;;;;;5070849;28;20496;-43
2022/04/13 12:29:16;;;;;;;11.93;4.68;;;16.80;99.90;;;;;;5070218;28;20474;-46
2022/04/13 12:31:46;;;;;;;12.68;4.50;;;18.10;99.90;;;;;;5071807;28;20093;-44
2022/04/13 12:34:16;;;;;;;15.65;5.82;;;18.70;99.90;;;;;;5076466;28;20051;-47
2022/04/13 12:36:42;;;;;;;14.80;5.13;;;17.50;99.90;;;;;;5075999;28;20077;-42